createdAt,value
2023-01-31T00:01:31.195Z,99205.34
2023-01-31T00:04:02.995Z,99214.78
2023-01-31T00:06:33.810Z,99213.94
2023-01-31T00:09:04.997Z,99213.08
2023-01-31T00:11:34.902Z,99212.23
2023-01-31T00:14:06.845Z,99231.95
2023-01-31T00:16:36.177Z,99219.95
2023-01-31T00:19:06.959Z,99217.37
2023-01-31T00:21:36.423Z,99226.81
2023-01-31T00:24:06.825Z,99227.69
2023-01-31T00:26:37.276Z,99226.83
2023-01-31T00:29:07.271Z,99233.70
2023-01-31T00:31:37.787Z,99237.11
2023-01-31T00:34:07.928Z,99239.69
2023-01-31T00:36:37.993Z,99247.40
2023-01-31T00:39:10.236Z,99245.70
2023-01-31T00:41:40.150Z,99241.41
2023-01-31T00:44:09.766Z,99248.27
2023-01-31T00:46:40.989Z,99243.16
2023-01-31T00:49:10.681Z,99249.14
2023-01-31T00:51:40.266Z,99255.17
2023-01-31T00:54:09.462Z,99260.31
2023-01-31T00:56:38.727Z,99267.14
2023-01-31T00:59:08.385Z,99266.30
2023-01-31T01:01:38.773Z,99256.86
2023-01-31T01:04:08.147Z,99269.72
2023-01-31T01:06:40.555Z,99274.02
2023-01-31T01:09:10.067Z,99276.59
2023-01-31T01:11:39.068Z,99280.02
2023-01-31T01:14:08.175Z,99284.31
2023-01-31T01:16:38.780Z,99284.31
2023-01-31T01:19:15.401Z,99281.73
2023-01-31T01:21:44.668Z,99278.31
2023-01-31T01:24:16.449Z,99277.44
2023-01-31T01:26:46.268Z,99277.44
2023-01-31T01:29:15.415Z,99281.71
2023-01-31T01:31:46.300Z,99281.71
2023-01-31T01:34:18.270Z,99281.71
2023-01-31T01:36:48.191Z,99278.27
2023-01-31T01:39:18.324Z,99286.86
2023-01-31T01:41:48.458Z,99287.68
2023-01-31T01:44:47.097Z,99285.11
2023-01-31T01:47:33.645Z,99290.26
2023-01-31T01:50:06.896Z,99294.52
2023-01-31T01:52:44.766Z,99306.53
2023-01-31T01:55:21.536Z,99313.41
2023-01-31T01:57:54.212Z,99318.55
2023-01-31T02:00:28.022Z,99323.69
2023-01-31T02:03:00.673Z,99327.98
2023-01-31T02:05:34.724Z,99320.27
2023-01-31T02:08:04.990Z,99334.84
2023-01-31T02:10:39.332Z,99328.86
2023-01-31T02:13:09.659Z,99343.44
2023-01-31T02:15:38.648Z,99346.86
2023-01-31T02:18:08.768Z,99354.61
2023-01-31T02:21:27.644Z,99361.48
2023-01-31T02:24:38.285Z,99373.48
2023-01-31T02:27:49.790Z,99355.48
2023-01-31T02:30:51.632Z,99378.63
2023-01-31T02:33:36.926Z,99370.06
2023-01-31T02:36:15.941Z,99367.49
2023-01-31T02:38:58.822Z,99376.09
2023-01-31T02:41:36.848Z,99385.53
2023-01-31T02:44:39.202Z,99382.95
2023-01-31T02:47:16.782Z,99396.70
2023-01-31T02:49:52.796Z,99404.41
2023-01-31T02:52:29.211Z,99406.14
2023-01-31T02:55:28.805Z,99403.56
2023-01-31T02:58:00.169Z,99411.28
2023-01-31T03:00:32.957Z,99414.73
2023-01-31T03:03:04.011Z,99422.45
2023-01-31T03:05:33.159Z,99422.45
2023-01-31T03:08:05.035Z,99431.89
2023-01-31T03:11:00.758Z,99441.34
2023-01-31T03:13:49.005Z,99445.64
2023-01-31T03:16:45.175Z,99442.19
2023-01-31T03:19:21.195Z,99453.36
2023-01-31T03:21:55.242Z,99457.63
2023-01-31T03:24:29.740Z,99456.78
2023-01-31T03:27:02.335Z,99471.37
2023-01-31T03:29:37.945Z,99471.37
2023-01-31T03:32:17.281Z,99477.36
2023-01-31T03:34:46.698Z,99482.51
2023-01-31T03:37:21.517Z,99477.36
2023-01-31T03:40:00.361Z,99476.52
2023-01-31T03:42:38.630Z,99486.81
2023-01-31T03:45:15.889Z,99485.08
2023-01-31T03:47:49.848Z,99482.51
2023-01-31T03:50:26.291Z,99483.39
2023-01-31T03:53:00.843Z,99482.51
2023-01-31T03:55:34.603Z,99479.09
2023-01-31T03:58:05.277Z,99487.66
2023-01-31T04:00:37.660Z,99496.22
2023-01-31T04:03:12.641Z,99488.50
2023-01-31T04:05:42.216Z,99497.06
2023-01-31T04:08:12.374Z,99494.49
2023-01-31T04:10:42.647Z,99498.76
2023-01-31T04:13:11.765Z,99497.91
2023-01-31T04:15:41.314Z,99503.06
2023-01-31T04:18:10.941Z,99503.91
2023-01-31T04:20:40.070Z,99511.63
2023-01-31T04:23:09.190Z,99515.92
2023-01-31T04:25:38.317Z,99515.04
2023-01-31T04:30:35.408Z,99527.06
2023-01-31T04:33:04.377Z,99532.20
2023-01-31T04:35:34.517Z,99534.78
2023-01-31T04:38:03.401Z,99547.64
2023-01-31T04:40:32.331Z,99545.06
2023-01-31T04:43:01.307Z,99551.02
2023-01-31T04:45:33.545Z,99546.72
2023-01-31T04:48:06.567Z,99548.45
2023-01-31T04:50:35.766Z,99559.58
2023-01-31T04:53:08.281Z,99563.88
2023-01-31T04:55:37.965Z,99567.30
2023-01-31T04:58:07.583Z,99569.87
2023-01-31T05:00:37.167Z,99563.00
2023-01-31T05:03:06.615Z,99568.14
2023-01-31T05:05:36.548Z,99575.02
2023-01-31T05:08:08.752Z,99581.05
2023-01-31T05:10:37.864Z,99583.63
2023-01-31T05:13:07.608Z,99587.03
2023-01-31T05:15:37.777Z,99591.34
2023-01-31T05:18:07.703Z,99592.19
2023-01-31T05:20:40.410Z,99597.37
2023-01-31T05:23:10.254Z,99596.52
2023-01-31T05:25:39.183Z,99607.66
2023-01-31T05:28:08.179Z,99612.81
2023-01-31T05:30:37.961Z,99607.66
2023-01-31T05:33:07.179Z,99620.53
2023-01-31T05:35:37.095Z,99625.67
2023-01-31T05:38:06.965Z,99630.82
2023-01-31T05:40:36.446Z,99638.54
2023-01-31T05:43:05.300Z,99643.69
2023-01-31T05:45:34.844Z,99641.99
2023-01-31T05:48:05.439Z,99640.27
2023-01-31T05:50:34.473Z,99641.98
2023-01-31T05:53:11.573Z,99653.97
2023-01-31T05:55:40.708Z,99663.42
2023-01-31T05:58:09.738Z,99658.23
2023-01-31T06:00:38.996Z,99663.38
2023-01-31T06:03:08.279Z,99667.63
2023-01-31T06:05:39.763Z,99679.64
2023-01-31T06:08:10.195Z,99684.75
2023-01-31T06:10:39.315Z,99689.89
2023-01-31T06:13:08.638Z,99689.00
2023-01-31T06:15:42.426Z,99690.73
2023-01-31T06:18:12.889Z,99706.16
2023-01-31T06:20:42.255Z,99707.85
2023-01-31T06:23:11.108Z,99713.84
2023-01-31T06:25:40.075Z,99710.42
2023-01-31T06:28:09.338Z,99719.83
2023-01-31T06:30:38.440Z,99733.53
2023-01-31T06:33:08.364Z,99736.10
2023-01-31T06:35:37.677Z,99730.95
2023-01-31T06:38:08.043Z,99734.41
2023-01-31T06:40:37.077Z,99736.10
2023-01-31T06:43:06.151Z,99743.81
2023-01-31T06:45:35.473Z,99748.96
2023-01-31T06:48:05.261Z,99748.13
2023-01-31T06:50:34.243Z,99752.42
2023-01-31T06:53:04.656Z,99754.20
2023-01-31T06:55:34.307Z,99761.92
2023-01-31T06:58:03.720Z,99764.50
2023-01-31T07:00:32.924Z,99772.27
2023-01-31T07:03:02.281Z,99777.41
2023-01-31T07:05:32.233Z,99783.45
2023-01-31T07:08:05.027Z,99784.34
2023-01-31T07:10:37.374Z,99788.70
2023-01-31T07:13:06.310Z,99794.75
2023-01-31T07:15:39.374Z,99802.52
2023-01-31T07:18:08.606Z,99805.10
2023-01-31T07:20:37.553Z,99813.72
2023-01-31T07:23:06.962Z,99811.19
2023-01-31T07:25:37.097Z,99822.38
2023-01-31T07:28:07.164Z,99819.81
2023-01-31T07:30:36.890Z,99826.69
2023-01-31T07:33:06.416Z,99829.31
2023-01-31T07:35:36.052Z,99831.05
2023-01-31T07:38:05.770Z,99827.69
2023-01-31T07:40:35.321Z,99828.53
2023-01-31T07:43:04.979Z,99833.73
2023-01-31T07:45:39.370Z,99847.48
2023-01-31T07:48:09.555Z,99857.84
2023-01-31T07:50:39.310Z,99855.27
2023-01-31T07:53:08.587Z,99863.04
2023-01-31T07:55:38.220Z,99867.36
2023-01-31T07:58:07.225Z,99862.25
2023-01-31T08:00:54.640Z,99860.56
2023-01-31T08:03:33.700Z,99871.81
2023-01-31T08:06:07.066Z,99870.17
2023-01-31T08:08:37.584Z,99879.68
2023-01-31T08:11:07.337Z,99876.27
2023-01-31T08:13:37.821Z,99883.16
2023-01-31T08:16:12.722Z,99886.58
2023-01-31T08:18:42.210Z,99888.30
2023-01-31T08:21:14.449Z,99892.61
2023-01-31T08:23:44.920Z,99898.66
2023-01-31T08:26:17.058Z,99897.87
2023-01-31T08:28:47.338Z,99896.22
2023-01-31T08:31:19.016Z,99900.49
2023-01-31T08:33:50.856Z,99905.69
2023-01-31T08:36:22.010Z,99903.11
2023-01-31T08:38:52.226Z,99907.41
2023-01-31T08:41:22.726Z,99903.16
2023-01-31T08:43:57.594Z,99906.67
2023-01-31T08:46:34.267Z,99908.45
2023-01-31T08:49:06.373Z,99912.80
2023-01-31T08:51:36.261Z,99906.83
2023-01-31T08:54:05.862Z,99916.30
2023-01-31T08:56:35.283Z,99905.11
2023-01-31T08:59:04.446Z,99915.41
2023-01-31T09:01:35.390Z,99918.84
2023-01-31T09:04:04.909Z,99924.84
2023-01-31T09:06:33.895Z,99926.53
2023-01-31T09:09:03.041Z,99929.95
2023-01-31T09:11:33.619Z,99929.06
2023-01-31T09:14:03.655Z,99927.38
2023-01-31T09:16:34.292Z,99932.48
2023-01-31T09:19:03.819Z,99941.95
2023-01-31T09:21:33.577Z,99946.26
2023-01-31T09:24:03.311Z,99942.84
2023-01-31T09:26:33.272Z,99943.73
2023-01-31T09:29:02.501Z,99942.04
2023-01-31T09:31:32.345Z,99948.93
2023-01-31T09:34:01.736Z,99952.36
2023-01-31T09:36:30.965Z,99958.36
2023-01-31T09:39:00.068Z,99965.20
2023-01-31T09:41:34.135Z,99962.66
2023-01-31T09:44:07.104Z,99966.09
2023-01-31T09:46:40.858Z,99967.82
2023-01-31T09:49:19.336Z,99968.67
2023-01-31T09:51:52.921Z,99960.09
2023-01-31T09:54:29.815Z,99959.33
2023-01-31T09:57:08.518Z,99968.84
2023-01-31T09:59:48.517Z,99973.16
2023-01-31T10:02:44.214Z,99968.00
2023-01-31T10:05:29.296Z,99965.47
2023-01-31T10:08:06.657Z,99964.66
2023-01-31T10:10:39.767Z,99965.55
2023-01-31T10:13:17.344Z,99963.05
2023-01-31T10:15:51.535Z,99960.61
2023-01-31T10:18:27.289Z,99961.78
2023-01-31T10:21:04.917Z,99964.31
2023-01-31T10:23:39.844Z,99968.63
2023-01-31T10:26:16.452Z,99961.73
2023-01-31T10:28:53.713Z,99961.70
2023-01-31T10:31:32.087Z,99961.73
2023-01-31T10:34:09.299Z,99961.76
2023-01-31T10:36:42.811Z,99960.05
2023-01-31T10:39:20.804Z,99963.48
2023-01-31T10:42:09.152Z,99959.17
2023-01-31T10:44:47.127Z,99962.64
2023-01-31T10:47:18.998Z,99960.08
2023-01-31T10:49:50.478Z,99956.67
2023-01-31T10:52:47.504Z,99961.81
2023-01-31T10:55:41.637Z,99960.94
2023-01-31T10:58:14.631Z,99961.73
2023-01-31T11:00:46.620Z,99959.11
2023-01-31T11:03:16.613Z,99955.66
2023-01-31T11:05:49.555Z,99962.58
2023-01-31T11:08:34.466Z,99950.52
2023-01-31T11:11:08.735Z,99953.13
2023-01-31T11:13:37.241Z,99953.98
2023-01-31T11:16:11.224Z,99961.73
2023-01-31T11:18:46.268Z,99973.78
2023-01-31T11:21:23.291Z,99972.09
2023-01-31T11:23:55.690Z,99966.92
2023-01-31T11:26:31.548Z,99967.80
2023-01-31T11:29:01.091Z,99973.78
2023-01-31T11:31:35.177Z,99978.95
2023-01-31T11:34:17.724Z,99982.38
2023-01-31T11:36:47.771Z,99971.17
2023-01-31T11:39:32.138Z,99981.50
2023-01-31T11:42:05.828Z,99976.30
2023-01-31T11:44:35.072Z,99971.99
2023-01-31T11:47:11.461Z,99969.41
2023-01-31T11:49:43.594Z,99976.30
2023-01-31T11:52:16.352Z,99964.28
2023-01-31T11:54:49.691Z,99962.58
2023-01-31T11:57:24.663Z,99956.59
2023-01-31T11:59:59.465Z,99957.50
2023-01-31T12:02:36.095Z,99958.38
2023-01-31T12:05:12.112Z,99950.66
2023-01-31T12:07:47.085Z,99947.22
2023-01-31T12:10:36.514Z,99938.70
2023-01-31T12:13:18.918Z,99942.17
2023-01-31T12:15:55.410Z,99926.72
2023-01-31T12:18:53.713Z,99925.87
2023-01-31T12:21:39.549Z,99935.41
2023-01-31T12:24:19.881Z,99926.82
2023-01-31T12:26:53.617Z,99932.00
2023-01-31T12:29:44.683Z,99921.70
2023-01-31T12:32:38.933Z,99922.59
2023-01-31T12:35:27.675Z,99921.72
2023-01-31T12:38:08.371Z,99913.14
2023-01-31T12:40:48.689Z,99920.03
2023-01-31T12:43:39.226Z,99919.19
2023-01-31T12:46:18.016Z,99912.29
2023-01-31T12:49:16.182Z,99907.97
2023-01-31T12:51:58.711Z,99913.16
2023-01-31T12:54:43.716Z,99926.94
2023-01-31T12:57:31.233Z,99925.22
2023-01-31T13:00:11.973Z,99916.56
2023-01-31T13:02:51.290Z,99921.68
2023-01-31T13:05:31.228Z,99929.42
2023-01-31T13:08:07.111Z,99927.64
2023-01-31T13:10:45.539Z,99925.86
2023-01-31T13:13:23.457Z,99920.63
2023-01-31T13:15:57.170Z,99927.44
2023-01-31T13:18:30.929Z,99920.47
2023-01-31T13:21:03.184Z,99914.41
2023-01-31T13:23:39.226Z,99913.52
2023-01-31T13:26:16.493Z,99916.93
2023-01-31T13:28:51.507Z,99902.30
2023-01-31T13:31:27.398Z,99909.98
2023-01-31T13:34:01.466Z,99909.06
2023-01-31T13:36:35.769Z,99904.73
2023-01-31T13:39:09.271Z,99907.30
2023-01-31T13:41:40.590Z,99904.69
2023-01-31T13:44:14.533Z,99902.08
2023-01-31T13:46:52.715Z,99908.94
2023-01-31T13:49:28.298Z,99904.56
2023-01-31T13:52:01.502Z,99910.53
2023-01-31T13:54:36.883Z,99919.96
2023-01-31T13:57:07.486Z,99919.00
2023-01-31T13:59:38.807Z,99922.38
2023-01-31T14:02:19.610Z,99920.58
2023-01-31T14:04:48.936Z,99921.38
2023-01-31T14:07:21.488Z,99920.45
2023-01-31T14:10:29.929Z,99914.40
2023-01-31T14:13:36.959Z,99911.78
2023-01-31T14:16:49.820Z,99900.58
2023-01-31T14:19:57.145Z,99898.84
2023-01-31T14:22:33.077Z,99901.34
2023-01-31T14:25:06.361Z,99896.17
2023-01-31T14:27:43.355Z,99905.59
2023-01-31T14:30:40.780Z,99903.02
2023-01-31T14:33:28.629Z,99907.23
2023-01-31T14:36:35.954Z,99900.35
2023-01-31T14:39:52.751Z,99903.77
2023-01-31T14:42:46.411Z,99901.98
2023-01-31T14:45:36.489Z,99899.36
2023-01-31T14:48:29.032Z,99891.58
2023-01-31T14:51:20.104Z,99886.42
2023-01-31T14:54:06.634Z,99895.79
2023-01-31T14:56:54.103Z,99897.42
2023-01-31T14:59:34.998Z,99892.27
2023-01-31T15:02:36.429Z,99888.79
2023-01-31T15:05:12.968Z,99891.27
2023-01-31T15:08:00.588Z,99886.94
2023-01-31T15:10:55.142Z,99896.30
2023-01-31T15:13:49.091Z,99890.24
2023-01-31T15:16:27.398Z,99899.61
2023-01-31T15:19:17.697Z,99894.40
2023-01-31T15:21:54.790Z,99894.37
2023-01-31T15:24:35.171Z,99897.73
2023-01-31T15:27:16.724Z,99898.53
2023-01-31T15:29:58.514Z,99890.74
2023-01-31T15:32:46.359Z,99886.42
2023-01-31T15:35:24.000Z,99887.22
2023-01-31T15:38:07.659Z,99889.77
2023-01-31T15:40:43.268Z,99894.86
2023-01-31T15:43:23.793Z,99888.81
2023-01-31T15:45:56.047Z,99883.62
2023-01-31T15:48:27.038Z,99879.30
2023-01-31T15:51:02.191Z,99879.29
2023-01-31T15:53:34.619Z,99871.52
2023-01-31T15:56:17.254Z,99873.20
2023-01-31T15:58:49.914Z,99880.02
2023-01-31T16:01:19.418Z,99881.69
2023-01-31T16:03:55.662Z,99882.56
2023-01-31T16:06:30.157Z,99883.36
2023-01-31T16:09:01.172Z,99880.77
2023-01-31T16:11:34.204Z,99891.84
2023-01-31T16:14:07.453Z,99892.66
2023-01-31T16:16:37.620Z,99893.44
2023-01-31T16:19:08.113Z,99890.84
2023-01-31T16:21:41.416Z,99884.77
2023-01-31T16:24:16.835Z,99886.42
2023-01-31T16:26:59.891Z,99879.53
2023-01-31T16:29:41.795Z,99872.59
2023-01-31T16:32:19.937Z,99890.59
2023-01-31T16:34:56.397Z,99875.14
2023-01-31T16:37:35.551Z,99878.61
2023-01-31T16:40:21.488Z,99876.05
2023-01-31T16:43:10.301Z,99865.78
2023-01-31T16:45:52.138Z,99872.66
2023-01-31T16:48:26.678Z,99868.40
2023-01-31T16:51:10.589Z,99863.28
2023-01-31T16:54:22.769Z,99853.88
2023-01-31T16:57:24.105Z,99853.00
2023-01-31T17:00:05.646Z,99850.47
2023-01-31T17:02:52.614Z,99850.47
2023-01-31T17:05:29.481Z,99841.04
2023-01-31T17:08:07.630Z,99835.05
2023-01-31T17:10:43.397Z,99833.31
2023-01-31T17:13:30.186Z,99829.86
2023-01-31T17:16:00.236Z,99828.97
2023-01-31T17:18:43.195Z,99828.12
2023-01-31T17:21:17.613Z,99822.08
2023-01-31T17:23:48.421Z,99820.34
2023-01-31T17:26:20.444Z,99820.34
2023-01-31T17:28:59.893Z,99817.75
2023-01-31T17:31:32.010Z,99812.56
2023-01-31T17:34:02.643Z,99804.00
2023-01-31T17:36:31.740Z,99802.27
2023-01-31T17:39:00.807Z,99798.86
2023-01-31T17:41:30.233Z,99786.85
2023-01-31T17:44:00.231Z,99787.70
2023-01-31T17:46:32.310Z,99790.27
2023-01-31T17:49:03.994Z,99780.03
2023-01-31T17:51:33.693Z,99776.62
2023-01-31T17:54:03.091Z,99768.91
2023-01-31T17:56:32.493Z,99764.63
2023-01-31T17:59:02.457Z,99764.63
2023-01-31T18:01:32.196Z,99761.23
2023-01-31T18:04:03.934Z,99749.26
2023-01-31T18:06:33.176Z,99745.84
2023-01-31T18:09:03.975Z,99742.39
2023-01-31T18:11:33.363Z,99735.58
2023-01-31T18:14:03.558Z,99726.14
2023-01-31T18:16:33.845Z,99727.02
2023-01-31T18:19:03.620Z,99730.44
2023-01-31T18:21:33.493Z,99720.22
2023-01-31T18:24:03.795Z,99719.37
2023-01-31T18:26:35.683Z,99712.51
2023-01-31T18:29:05.020Z,99712.55
2023-01-31T18:31:36.441Z,99706.57
2023-01-31T18:34:06.042Z,99702.28
2023-01-31T18:36:39.020Z,99707.45
2023-01-31T18:39:08.806Z,99698.02
2023-01-31T18:41:38.108Z,99690.32
2023-01-31T18:44:07.027Z,99686.95
2023-01-31T18:46:39.122Z,99682.66
2023-01-31T18:49:08.577Z,99670.64
2023-01-31T18:51:38.822Z,99674.94
2023-01-31T18:54:08.540Z,99671.52
2023-01-31T18:56:37.769Z,99673.20
2023-01-31T18:59:06.826Z,99662.92
2023-01-31T19:01:35.969Z,99663.76
2023-01-31T19:04:06.351Z,99655.16
2023-01-31T19:06:38.028Z,99662.88
2023-01-31T19:09:08.489Z,99650.01
2023-01-31T19:11:37.768Z,99645.70
2023-01-31T19:14:09.614Z,99649.97
2023-01-31T19:16:41.050Z,99647.39
2023-01-31T19:19:11.827Z,99637.11
2023-01-31T19:21:41.766Z,99636.25
2023-01-31T19:24:13.870Z,99633.65
2023-01-31T19:26:43.466Z,99633.65
2023-01-31T19:29:15.144Z,99618.22
2023-01-31T19:31:44.905Z,99611.35
2023-01-31T19:34:13.781Z,99607.09
2023-01-31T19:36:46.577Z,99596.81
2023-01-31T19:39:15.675Z,99596.81
2023-01-31T19:41:45.007Z,99585.64
2023-01-31T19:44:14.959Z,99583.95
2023-01-31T19:46:45.821Z,99583.95
2023-01-31T19:49:15.311Z,99565.12
2023-01-31T19:51:44.534Z,99561.70
2023-01-31T19:54:16.793Z,99557.41
2023-01-31T19:56:45.838Z,99557.41
2023-01-31T19:59:15.099Z,99544.56
2023-01-31T20:01:44.401Z,99544.56
2023-01-31T20:04:13.395Z,99536.85
2023-01-31T20:06:42.420Z,99531.75
2023-01-31T20:09:19.422Z,99526.61
2023-01-31T20:11:50.654Z,99518.05
2023-01-31T20:14:19.815Z,99512.06
2023-01-31T20:16:49.012Z,99508.66
2023-01-31T20:19:19.647Z,99503.52
2023-01-31T20:21:51.066Z,99500.98
2023-01-31T20:24:20.748Z,99488.97
2023-01-31T20:26:50.048Z,99488.97
2023-01-31T20:29:18.973Z,99488.13
2023-01-31T20:31:50.650Z,99481.30
2023-01-31T20:34:23.297Z,99473.58
2023-01-31T20:36:53.498Z,99472.73
2023-01-31T20:39:27.158Z,99464.14
2023-01-31T20:41:56.835Z,99463.30
2023-01-31T20:44:27.967Z,99459.88
2023-01-31T20:46:58.020Z,99459.03
2023-01-31T20:49:29.433Z,99459.88
2023-01-31T20:51:58.436Z,99445.30
2023-01-31T20:54:30.292Z,99445.30
2023-01-31T20:56:59.439Z,99438.47
2023-01-31T20:59:31.235Z,99438.47
2023-01-31T21:02:01.091Z,99428.19
2023-01-31T21:04:31.099Z,99423.04
2023-01-31T21:07:00.762Z,99419.63
2023-01-31T21:09:30.198Z,99412.78
2023-01-31T21:11:59.379Z,99407.64
2023-01-31T21:14:31.061Z,99399.93
2023-01-31T21:17:01.078Z,99402.50
2023-01-31T21:19:30.249Z,99388.80
2023-01-31T21:21:59.851Z,99390.52
2023-01-31T21:24:29.969Z,99384.53
2023-01-31T21:27:00.644Z,99373.37
2023-01-31T21:29:30.239Z,99374.25
2023-01-31T21:31:59.906Z,99369.10
2023-01-31T21:34:35.713Z,99367.41
2023-01-31T21:37:04.768Z,99362.27
2023-01-31T21:39:34.312Z,99361.41
2023-01-31T21:42:19.169Z,99355.42
2023-01-31T21:44:48.760Z,99356.27
2023-01-31T21:47:17.699Z,99351.13
2023-01-31T21:49:46.620Z,99349.41
2023-01-31T21:52:15.462Z,99345.11
2023-01-31T21:54:44.375Z,99335.67
2023-01-31T21:57:13.311Z,99329.63
2023-01-31T21:59:44.898Z,99324.42
2023-01-31T22:02:13.852Z,99326.11
2023-01-31T22:04:42.905Z,99316.65
2023-01-31T22:07:11.879Z,99311.45
2023-01-31T22:09:40.895Z,99303.70
2023-01-31T22:12:10.202Z,99300.28
2023-01-31T22:14:39.274Z,99293.39
2023-01-31T22:17:09.079Z,99285.68
2023-01-31T22:19:42.786Z,99291.66
2023-01-31T22:22:11.749Z,99283.95
2023-01-31T22:24:41.061Z,99283.08
2023-01-31T22:27:10.219Z,99277.94
2023-01-31T22:29:39.351Z,99266.81
2023-01-31T22:32:08.699Z,99276.21
2023-01-31T22:34:38.882Z,99267.66
2023-01-31T22:37:07.976Z,99276.25
2023-01-31T22:39:37.571Z,99259.98
2023-01-31T22:42:07.171Z,99261.70
2023-01-31T22:44:36.324Z,99264.27
2023-01-31T22:47:07.111Z,99252.30
2023-01-31T22:49:36.422Z,99247.19
2023-01-31T22:52:06.032Z,99237.75
2023-01-31T22:54:38.577Z,99224.92
2023-01-31T22:57:07.590Z,99232.64
2023-01-31T22:59:36.591Z,99231.79
2023-01-31T23:02:06.022Z,99230.09
2023-01-31T23:04:35.958Z,99219.84
2023-01-31T23:07:05.401Z,99229.27
2023-01-31T23:09:36.798Z,99224.16
2023-01-31T23:12:08.731Z,99222.45
2023-01-31T23:14:38.662Z,99213.89
2023-01-31T23:17:28.976Z,99218.18
2023-01-31T23:19:59.642Z,99206.22
2023-01-31T23:22:30.201Z,99208.78
2023-01-31T23:25:00.776Z,99201.09
2023-01-31T23:27:34.338Z,99204.56
2023-01-31T23:30:05.176Z,99206.28
2023-01-31T23:32:37.440Z,99197.70
2023-01-31T23:35:08.637Z,99200.30
2023-01-31T23:37:38.217Z,99206.31
2023-01-31T23:40:09.894Z,99207.16
2023-01-31T23:42:39.143Z,99201.17
2023-01-31T23:45:10.382Z,99191.73
2023-01-31T23:47:42.887Z,99188.28
2023-01-31T23:50:13.665Z,99183.14
2023-01-31T23:52:43.038Z,99177.99
2023-01-31T23:55:14.776Z,99173.73
2023-01-31T23:57:43.762Z,99172.88
